Time;durP1;ratioP1;P1;durP2;ratioP2;P2;SDS_P1;SDS_P2;PMS_P1;PMS_P2;Temp;Humidity;BMP_temperature;BMP_pressure;BME280_temperature;BME280_humidity;BME280_pressure;Samples;Min_cycle;Max_cycle;Signal;HPM_P1;HPM_P2
2023/12/01 00:00:42;;;;;;;;;;;;;;;20.75;32.93;93912.91;10524603;28;1977;-51
2023/12/01 00:05:43;;;;;;;;;;;;;;;20.73;32.78;93918.47;10527456;28;1699;-50
2023/12/01 00:10:43;;;;;;;;;;;;;;;20.73;32.53;93915.09;10522021;28;1520;-50
2023/12/01 00:15:45;;;;;;;;;;;;;;;20.72;32.57;93909.03;10522543;28;1473;-51
2023/12/01 00:20:46;;;;;;;;;;;;;;;20.70;32.66;93911.22;10523174;28;1902;-52
2023/12/01 00:25:46;;;;;;;;;;;;;;;20.71;32.34;93918.00;10519879;28;1478;-55
2023/12/01 00:30:47;;;;;;;;;;;;;;;20.66;32.90;93918.22;10529875;28;2267;-51
2023/12/01 00:35:47;;;;;;;;;;;;;;;20.66;33.11;93912.16;10518166;28;1549;-53
2023/12/01 00:40:47;;;;;;;;;;;;;;;20.64;33.12;93912.50;10533656;28;1910;-52
2023/12/01 00:45:47;;;;;;;;;;;;;;;20.63;32.90;93902.28;10523207;28;4593;-53
2023/12/01 00:50:48;;;;;;;;;;;;;;;20.61;33.34;93889.41;10527625;28;1622;-53
2023/12/01 00:55:48;;;;;;;;;;;;;;;20.61;33.13;93905.22;10519555;28;1453;-52
2023/12/01 01:00:48;;;;;;;;;;;;;;;20.59;33.23;93894.22;10526394;28;1906;-52
2023/12/01 01:05:48;;;;;;;;;;;;;;;20.58;33.13;93887.44;10515283;28;1762;-51
2023/12/01 01:10:49;;;;;;;;;;;;;;;20.58;33.25;93892.69;10516465;28;1585;-52
2023/12/01 01:15:49;;;;;;;;;;;;;;;20.56;32.81;93888.84;10522267;28;1598;-51
2023/12/01 01:20:50;;;;;;;;;;;;;;;20.57;32.78;93887.72;10510520;28;2736;-52
2023/12/01 01:25:50;;;;;;;;;;;;;;;20.56;32.48;93889.63;10495651;28;3163;-48
2023/12/01 01:30:51;;;;;;;;;;;;;;;20.55;32.55;93892.53;10499256;28;2890;-50
2023/12/01 01:35:51;;;;;;;;;;;;;;;20.53;32.11;93900.75;10490711;28;2833;-49
2023/12/01 01:40:51;;;;;;;;;;;;;;;20.54;32.65;93896.28;10502795;28;2821;-52
2023/12/01 01:45:55;;;;;;;;;;;;;;;20.53;32.75;93897.34;10501043;28;4708;-52
2023/12/01 01:50:55;;;;;;;;;;;;;;;20.53;32.25;93884.19;10498998;28;2941;-51
2023/12/01 01:55:56;;;;;;;;;;;;;;;20.53;32.39;93884.97;10495906;28;2853;-51
2023/12/01 02:00:56;;;;;;;;;;;;;;;20.52;31.88;93878.19;10491616;28;3003;-51
2023/12/01 02:05:57;;;;;;;;;;;;;;;20.52;32.47;93877.41;10496505;28;2954;-53
2023/12/01 02:11:00;;;;;;;;;;;;;;;20.50;32.27;93869.81;10494542;28;2795;-51
2023/12/01 02:16:02;;;;;;;;;;;;;;;20.51;32.17;93871.34;10498194;28;2769;-50
2023/12/01 02:21:03;;;;;;;;;;;;;;;20.52;32.42;93870.28;10492568;28;2846;-51
2023/12/01 02:26:03;;;;;;;;;;;;;;;20.49;32.36;93881.44;10494257;28;2913;-50
2023/12/01 02:31:04;;;;;;;;;;;;;;;20.48;32.21;93879.91;10496148;28;2913;-51
2023/12/01 02:36:06;;;;;;;;;;;;;;;20.46;31.96;93894.47;10492024;28;2855;-52
2023/12/01 02:41:06;;;;;;;;;;;;;;;20.47;32.22;93896.00;10485786;28;2862;-50
2023/12/01 02:46:07;;;;;;;;;;;;;;;20.46;32.31;93905.78;10499250;28;4713;-53
2023/12/01 02:51:07;;;;;;;;;;;;;;;20.45;32.69;93922.63;10494795;28;3161;-51
2023/12/01 02:56:08;;;;;;;;;;;;;;;20.49;32.70;93914.88;10489741;28;3120;-50
2023/12/01 03:01:08;;;;;;;;;;;;;;;20.48;32.50;93916.75;10489943;28;2821;-52
2023/12/01 03:06:09;;;;;;;;;;;;;;;20.49;32.40;93931.44;10485432;28;2795;-54
2023/12/01 03:11:11;;;;;;;;;;;;;;;20.49;32.59;93917.50;10492052;28;2832;-50
2023/12/01 03:16:12;;;;;;;;;;;;;;;20.50;32.34;93904.03;10489958;28;2854;-53
2023/12/01 03:21:13;;;;;;;;;;;;;;;20.54;32.41;93909.44;10494556;28;2797;-50
2023/12/01 03:26:16;;;;;;;;;;;;;;;20.51;32.35;93900.31;10496831;28;2801;-51
2023/12/01 03:31:17;;;;;;;;;;;;;;;20.54;31.74;93902.31;10490761;28;2926;-52
2023/12/01 03:36:17;;;;;;;;;;;;;;;20.57;31.76;93914.06;10501128;28;3166;-53
2023/12/01 03:41:17;;;;;;;;;;;;;;;20.57;32.55;93914.06;10494974;28;2797;-47
2023/12/01 03:46:18;;;;;;;;;;;;;;;20.54;32.50;93910.22;10487787;28;4593;-48
2023/12/01 03:51:18;;;;;;;;;;;;;;;20.55;32.12;93898.59;10486519;28;2899;-53
2023/12/01 03:56:18;;;;;;;;;;;;;;;20.55;31.90;93908.34;10489988;28;2808;-51
2023/12/01 04:01:19;;;;;;;;;;;;;;;20.56;32.55;93904.63;10486905;28;2874;-54
2023/12/01 04:06:19;;;;;;;;;;;;;;;20.58;31.54;93911.13;10490409;28;2925;-52
2023/12/01 04:11:19;;;;;;;;;;;;;;;20.57;31.94;93891.16;10492039;28;2853;-51
2023/12/01 04:16:20;;;;;;;;;;;;;;;20.58;31.99;93903.22;10493228;28;2933;-50
2023/12/01 04:21:24;;;;;;;;;;;;;;;20.58;31.69;93907.72;10490823;28;3248;-53
2023/12/01 04:26:25;;;;;;;;;;;;;;;20.59;31.85;93906.63;10496975;28;2890;-49
2023/12/01 04:31:25;;;;;;;;;;;;;;;20.59;31.72;93914.50;10501617;28;2982;-52
2023/12/01 04:36:25;;;;;;;;;;;;;;;20.58;31.92;93913.75;10496930;28;2840;-53
2023/12/01 04:41:26;;;;;;;;;;;;;;;20.58;31.95;93919.03;10504340;28;2902;-53
2023/12/01 04:46:26;;;;;;;;;;;;;;;20.58;31.50;93903.22;10494782;28;4684;-52
2023/12/01 04:51:26;;;;;;;;;;;;;;;20.59;31.42;93910.03;10492286;28;2860;-52
2023/12/01 04:56:27;;;;;;;;;;;;;;;20.58;31.61;93902.44;10496074;28;2900;-52
2023/12/01 05:01:27;;;;;;;;;;;;;;;20.58;31.68;93903.22;10498519;28;3081;-52
2023/12/01 05:06:27;;;;;;;;;;;;;;;20.58;31.83;93912.97;10495181;28;2824;-47
2023/12/01 05:11:28;;;;;;;;;;;;;;;20.59;31.51;93919.78;10498046;28;2924;-52
2023/12/01 05:16:29;;;;;;;;;;;;;;;20.59;31.52;93930.31;10489419;28;2848;-48
2023/12/01 05:21:29;;;;;;;;;;;;;;;20.60;31.66;93932.63;10497779;28;3118;-52
2023/12/01 05:26:30;;;;;;;;;;;;;;;20.59;31.58;93941.63;10496353;28;2812;-51
2023/12/01 05:31:30;;;;;;;;;;;;;;;20.60;31.46;93950.28;10495612;28;2948;-50
2023/12/01 05:36:30;;;;;;;;;;;;;;;20.60;31.20;93945.81;10491208;28;2871;-49
2023/12/01 05:41:31;;;;;;;;;;;;;;;20.61;31.84;93941.31;10499523;28;3101;-50
2023/12/01 05:46:31;;;;;;;;;;;;;;;20.56;31.68;93939.63;10491946;28;4517;-45
2023/12/01 05:51:33;;;;;;;;;;;;;;;20.57;31.31;93928.00;10500502;28;2922;-53
2023/12/01 05:56:33;;;;;;;;;;;;;;;20.55;31.27;93938.06;10500468;28;2824;-52
2023/12/01 06:01:34;;;;;;;;;;;;;;;20.56;31.80;93936.22;10496766;28;2803;-51
2023/12/01 06:06:34;;;;;;;;;;;;;;;20.58;31.48;93944.56;10497107;28;2902;-51
2023/12/01 06:11:34;;;;;;;;;;;;;;;20.58;31.63;93950.63;10489271;28;2986;-48
2023/12/01 06:16:34;;;;;;;;;;;;;;;20.56;31.82;93939.63;10498273;28;3305;-51
2023/12/01 06:21:35;;;;;;;;;;;;;;;20.57;31.83;93930.63;10493302;28;2857;-52
2023/12/01 06:26:35;;;;;;;;;;;;;;;20.57;31.82;93938.53;10498468;28;2965;-48
2023/12/01 06:31:36;;;;;;;;;;;;;;;20.59;31.66;93938.97;10503739;28;2805;-48
2023/12/01 06:36:36;;;;;;;;;;;;;;;20.60;31.80;93934.50;10490140;28;2904;-51
2023/12/01 06:41:37;;;;;;;;;;;;;;;20.58;31.94;93928.78;10499142;28;2789;-52
2023/12/01 06:46:39;;;;;;;;;;;;;;;20.60;31.59;93934.50;10499346;28;4662;-50
2023/12/01 06:51:39;;;;;;;;;;;;;;;20.59;31.73;93936.34;10504248;28;2802;-49
2023/12/01 06:56:40;;;;;;;;;;;;;;;20.58;31.95;93934.81;10493605;28;2895;-48
2023/12/01 07:01:40;;;;;;;;;;;;;;;20.58;32.16;93961.16;10498339;28;2983;-50
2023/12/01 07:06:46;;;;;;;;;;;;;;;20.59;31.58;93967.94;10496726;28;2898;-52
2023/12/01 07:11:46;;;;;;;;;;;;;;;20.59;31.86;93965.31;10503699;28;2813;-48
2023/12/01 07:16:46;;;;;;;;;;;;;;;20.59;30.87;93972.41;10488630;28;3015;-53
2023/12/01 07:21:47;;;;;;;;;;;;;;;20.59;31.09;93972.41;10487453;28;3158;-51
2023/12/01 07:26:51;;;;;;;;;;;;;;;20.58;31.04;93992.72;10500105;28;2860;-52
2023/12/01 07:31:52;;;;;;;;;;;;;;;20.56;31.52;93994.91;10488819;28;2918;-54
2023/12/01 07:36:52;;;;;;;;;;;;;;;20.54;31.32;93983.91;10484921;28;2879;-51
2023/12/01 07:41:52;;;;;;;;;;;;;;;20.49;31.83;93978.81;10492255;28;2824;-53
2023/12/01 07:46:53;;;;;;;;;;;;;;;20.54;30.76;93978.66;10485525;28;4672;-52
2023/12/01 07:51:56;;;;;;;;;;;;;;;20.53;31.42;93994.75;10489927;28;2956;-48
2023/12/01 07:56:57;;;;;;;;;;;;;;;20.55;30.96;93997.84;10498465;28;2865;-48
2023/12/01 08:01:58;;;;;;;;;;;;;;;20.50;31.83;93998.03;10518238;28;2812;-50
2023/12/01 08:06:58;;;;;;;;;;;;;;;20.55;30.97;94000.47;10492499;28;2833;-52
2023/12/01 08:11:59;;;;;;;;;;;;;;;20.53;30.96;94006.06;10486326;28;3273;-51
2023/12/01 08:16:59;;;;;;;;;;;;;;;20.52;31.29;94017.69;10483759;28;2832;-48
2023/12/01 08:21:59;;;;;;;;;;;;;;;20.54;30.83;94014.72;10499214;28;2860;-50
2023/12/01 08:27:00;;;;;;;;;;;;;;;20.48;31.51;94032.56;10498869;28;2838;-50
2023/12/01 08:32:00;;;;;;;;;;;;;;;20.49;31.28;94034.09;10498022;28;2872;-52
2023/12/01 08:37:00;;;;;;;;;;;;;;;20.51;30.93;94017.97;10496662;28;2778;-52
2023/12/01 08:42:01;;;;;;;;;;;;;;;20.51;31.01;94025.88;10496995;28;2832;-51
2023/12/01 08:47:01;;;;;;;;;;;;;;;20.49;31.46;94035.94;10494337;28;4471;-51
2023/12/01 08:52:01;;;;;;;;;;;;;;;20.49;30.84;94015.66;10498297;28;2919;-49
2023/12/01 08:57:02;;;;;;;;;;;;;;;20.47;31.47;94017.84;10499669;28;2932;-52
2023/12/01 09:02:02;;;;;;;;;;;;;;;20.45;31.67;94041.06;10499574;28;2901;-52
2023/12/01 09:07:02;;;;;;;;;;;;;;;20.46;31.64;94037.34;10494103;28;2864;-52
2023/12/01 09:12:02;;;;;;;;;;;;;;;20.42;31.65;94040.94;10497457;28;2852;-53
2023/12/01 09:17:03;;;;;;;;;;;;;;;20.47;31.50;94036.25;10506603;28;2784;-53
2023/12/01 09:22:03;;;;;;;;;;;;;;;20.48;31.30;94048.34;10496625;28;3148;-54
2023/12/01 09:27:03;;;;;;;;;;;;;;;20.50;31.48;94056.72;10508820;28;2948;-52
2023/12/01 09:32:04;;;;;;;;;;;;;;;20.47;31.43;94059.94;10498992;28;2830;-51
2023/12/01 09:37:04;;;;;;;;;;;;;;;20.45;31.54;94046.31;10495765;28;2899;-54
2023/12/01 09:42:08;;;;;;;;;;;;;;;20.45;31.51;94045.56;10499960;28;2918;-50
2023/12/01 09:47:10;;;;;;;;;;;;;;;20.48;31.13;94024.66;10500204;28;4698;-51
2023/12/01 09:52:10;;;;;;;;;;;;;;;20.47;31.41;94030.22;10499236;28;2826;-49
2023/12/01 09:57:10;;;;;;;;;;;;;;;20.43;31.53;94019.56;10496931;28;2867;-53
2023/12/01 10:02:10;;;;;;;;;;;;;;;20.47;31.69;94011.78;10496272;28;2830;-51
2023/12/01 10:07:11;;;;;;;;;;;;;;;20.49;31.36;94002.50;10500588;28;2861;-51
2023/12/01 10:12:12;;;;;;;;;;;;;;;20.47;31.44;93996.78;10496497;28;2893;-49
2023/12/01 10:17:12;;;;;;;;;;;;;;;20.46;31.31;94003.16;10502300;28;3128;-50
2023/12/01 10:22:13;;;;;;;;;;;;;;;20.48;31.28;93998.34;10507348;28;2872;-48
2023/12/01 10:27:13;;;;;;;;;;;;;;;20.46;31.36;93999.75;10503686;28;2876;-50
2023/12/01 10:32:14;;;;;;;;;;;;;;;20.47;31.51;93996.78;10496879;28;2889;-50
2023/12/01 10:37:16;;;;;;;;;;;;;;;20.43;31.78;94006.41;10497048;28;2897;-51
2023/12/01 10:42:18;;;;;;;;;;;;;;;20.48;31.54;93997.56;10500632;28;2840;-48
2023/12/01 10:47:18;;;;;;;;;;;;;;;20.43;31.57;93998.50;10497943;28;4650;-51
2023/12/01 10:52:21;;;;;;;;;;;;;;;20.43;31.66;94006.41;10492580;28;2964;-51
2023/12/01 10:57:21;;;;;;;;;;;;;;;20.43;31.69;94010.88;10497705;28;2830;-50
2023/12/01 11:02:21;;;;;;;;;;;;;;;20.44;31.65;93986.13;10492996;28;2995;-51
2023/12/01 11:07:28;;;;;;;;;;;;;;;20.43;31.58;93964.28;10494447;28;2882;-47
2023/12/01 11:12:34;;;;;;;;;;;;;;;20.44;31.27;93960.59;10494848;28;2843;-50
2023/12/01 11:17:34;;;;;;;;;;;;;;;20.42;31.57;93973.28;10502928;28;2801;-51
2023/12/01 11:22:37;;;;;;;;;;;;;;;20.43;31.37;93961.66;10491897;28;2813;-51
2023/12/01 11:27:37;;;;;;;;;;;;;;;20.43;31.80;93961.66;10498386;28;2846;-50
2023/12/01 11:32:40;;;;;;;;;;;;;;;20.46;31.91;93957.63;10504785;28;2903;-51
2023/12/01 11:37:58;;;;;;;;;;;;;;;20.50;31.94;93959.31;10504850;28;2841;-49
2023/12/01 11:42:59;;;;;;;;;;;;;;;20.50;32.14;93964.59;10505468;28;3051;-47
2023/12/01 11:48:02;;;;;;;;;;;;;;;20.52;33.14;93961.63;10500196;28;5045;-51
2023/12/01 11:53:03;;;;;;;;;;;;;;;20.53;32.53;93958.66;10500963;28;2789;-52
2023/12/01 11:58:03;;;;;;;;;;;;;;;20.52;32.35;93954.50;10513686;27;2881;-48
2023/12/01 12:03:17;;;;;;;;;;;;;;;20.54;32.13;93954.97;10498355;28;2925;-48
2023/12/01 12:08:18;;;;;;;;;;;;;;;20.51;32.33;93955.59;10501257;28;2995;-52
2023/12/01 12:13:18;;;;;;;;;;;;;;;20.49;32.47;93938.56;10506779;28;2888;-48
2023/12/01 12:18:20;;;;;;;;;;;;;;;20.50;32.29;93948.78;10492494;28;2858;-48
2023/12/01 12:23:21;;;;;;;;;;;;;;;20.50;32.21;93942.75;10498716;28;2902;-49
2023/12/01 12:28:21;;;;;;;;;;;;;;;20.49;31.82;93935.91;10499300;28;2773;-49
2023/12/01 12:33:22;;;;;;;;;;;;;;;20.50;31.89;93935.63;10507400;28;2835;-51
2023/12/01 12:38:22;;;;;;;;;;;;;;;20.49;32.13;93926.19;10498327;28;3417;-50
2023/12/01 12:43:22;;;;;;;;;;;;;;;20.47;32.05;93925.72;10493316;28;2796;-49
2023/12/01 12:48:26;;;;;;;;;;;;;;;20.48;32.14;93937.03;10499975;28;2933;-52
2023/12/01 12:53:27;;;;;;;;;;;;;;;20.49;31.85;93938.56;10501868;28;2864;-53
2023/12/01 12:58:27;;;;;;;;;;;;;;;20.47;31.87;93948.63;10506095;28;2785;-50
2023/12/01 13:03:27;;;;;;;;;;;;;;;20.46;31.93;93955.78;10507754;28;2845;-49
2023/12/01 13:08:27;;;;;;;;;;;;;;;20.46;32.00;93947.88;10500242;28;2786;-50
2023/12/01 13:13:28;;;;;;;;;;;;;;;20.45;31.74;93956.84;10500684;28;3005;-52
2023/12/01 13:18:28;;;;;;;;;;;;;;;20.47;31.52;93959.94;10498594;28;2969;-51
2023/12/01 13:23:28;;;;;;;;;;;;;;;20.47;31.78;93962.56;10498383;28;2918;-48
2023/12/01 13:28:29;;;;;;;;;;;;;;;20.48;31.72;93960.72;10494520;28;3236;-52
2023/12/01 13:33:29;;;;;;;;;;;;;;;20.46;31.81;93963.66;10504287;28;2883;-52
2023/12/01 13:38:30;;;;;;;;;;;;;;;20.47;31.63;93973.09;10496709;28;2861;-52
2023/12/01 13:43:30;;;;;;;;;;;;;;;20.46;31.95;93962.88;10501408;28;4605;-50
2023/12/01 13:48:31;;;;;;;;;;;;;;;20.46;31.87;93968.94;10493391;28;2896;-51
2023/12/01 13:53:31;;;;;;;;;;;;;;;20.46;31.48;93979.47;10502904;28;2777;-48
2023/12/01 13:58:31;;;;;;;;;;;;;;;20.46;31.62;93979.47;10505614;28;2912;-46
2023/12/01 14:03:32;;;;;;;;;;;;;;;20.47;31.73;93975.72;10500609;28;2912;-52
2023/12/01 14:08:32;;;;;;;;;;;;;;;20.46;31.91;93971.56;10506659;28;2797;-51
2023/12/01 14:13:32;;;;;;;;;;;;;;;20.44;31.85;93971.09;10506212;28;2920;-51
2023/12/01 14:18:32;;;;;;;;;;;;;;;20.45;31.71;93977.91;10500150;28;2874;-48
2023/12/01 14:23:33;;;;;;;;;;;;;;;20.45;31.54;93977.91;10508798;28;2876;-51
2023/12/01 14:28:33;;;;;;;;;;;;;;;20.45;31.77;93971.84;10509693;28;2900;-49
2023/12/01 14:33:33;;;;;;;;;;;;;;;20.45;31.62;93975.28;10502552;28;2813;-52
2023/12/01 14:38:33;;;;;;;;;;;;;;;20.46;31.49;93974.19;10497386;28;2908;-53
2023/12/01 14:43:34;;;;;;;;;;;;;;;20.44;31.62;93971.09;10498981;28;4771;-50
2023/12/01 14:48:34;;;;;;;;;;;;;;;20.45;31.48;93969.22;10504981;28;2866;-47
2023/12/01 14:53:34;;;;;;;;;;;;;;;20.45;31.49;93985.78;10502591;28;2796;-53
2023/12/01 14:58:37;;;;;;;;;;;;;;;20.48;31.52;93989.66;10497191;28;2848;-52
2023/12/01 15:03:41;;;;;;;;;;;;;;;20.45;31.45;93998.19;10497651;28;2934;-48
2023/12/01 15:08:41;;;;;;;;;;;;;;;20.46;31.46;94011.03;10502567;28;2859;-50
2023/12/01 15:13:41;;;;;;;;;;;;;;;20.45;31.49;94012.13;10500565;28;2810;-51
2023/12/01 15:18:41;;;;;;;;;;;;;;;20.46;31.36;94020.78;10500741;28;2800;-52
2023/12/01 15:23:42;;;;;;;;;;;;;;;20.45;31.31;94022.63;10505000;28;2864;-53
2023/12/01 15:28:43;;;;;;;;;;;;;;;20.44;31.36;94031.63;10499522;28;2801;-52
2023/12/01 15:33:44;;;;;;;;;;;;;;;20.47;31.29;94019.69;10499221;28;2859;-50
2023/12/01 15:38:44;;;;;;;;;;;;;;;20.46;31.14;94012.91;10499230;28;2870;-50
2023/12/01 15:43:47;;;;;;;;;;;;;;;20.44;31.46;94022.97;10498824;28;4817;-52
2023/12/01 15:48:48;;;;;;;;;;;;;;;20.43;31.72;94024.81;10498394;28;2802;-51
2023/12/01 15:53:49;;;;;;;;;;;;;;;20.44;31.56;94018.47;10492162;28;3210;-52
2023/12/01 15:58:49;;;;;;;;;;;;;;;20.44;31.43;94039.53;10493822;28;2906;-53
2023/12/01 16:03:50;;;;;;;;;;;;;;;20.43;31.53;94027.44;10496220;28;2853;-52
2023/12/01 16:08:53;;;;;;;;;;;;;;;20.45;31.29;94027.91;10494716;28;2793;-53
2023/12/01 16:13:53;;;;;;;;;;;;;;;20.44;31.31;94013.22;10491118;28;3171;-53
2023/12/01 16:18:53;;;;;;;;;;;;;;;20.43;31.52;94019.56;10495633;28;2814;-52
2023/12/01 16:23:53;;;;;;;;;;;;;;;20.43;31.42;94016.91;10505429;28;2871;-53
2023/12/01 16:28:54;;;;;;;;;;;;;;;20.45;31.22;94024.50;10500799;28;2877;-54
2023/12/01 16:33:54;;;;;;;;;;;;;;;20.43;31.45;94027.44;10501192;28;3344;-52
2023/12/01 16:38:55;;;;;;;;;;;;;;;20.45;31.43;94014.75;10499191;28;2832;-53
2023/12/01 16:43:56;;;;;;;;;;;;;;;20.46;31.27;94010.25;10504336;28;4424;-53
2023/12/01 16:48:56;;;;;;;;;;;;;;;20.46;31.22;94026.06;10498190;28;2894;-54
2023/12/01 16:53:56;;;;;;;;;;;;;;;20.44;31.36;94029.00;10503528;28;2861;-51
2023/12/01 16:58:57;;;;;;;;;;;;;;;20.44;31.23;94039.53;10499652;28;2883;-52
2023/12/01 17:03:57;;;;;;;;;;;;;;;20.45;31.49;94041.06;10502398;28;2922;-51
2023/12/01 17:08:57;;;;;;;;;;;;;;;20.45;31.22;94030.53;10498273;28;2948;-52
2023/12/01 17:13:58;;;;;;;;;;;;;;;20.47;31.05;94032.84;10508268;28;2856;-50
2023/12/01 17:18:58;;;;;;;;;;;;;;;20.42;31.65;93998.81;10503105;28;2885;-53
2023/12/01 17:23:58;;;;;;;;;;;;;;;20.43;31.30;94009.03;10504989;28;2879;-48
2023/12/01 17:28:58;;;;;;;;;;;;;;;20.45;31.12;94014.75;10514154;28;2818;-52
2023/12/01 17:33:59;;;;;;;;;;;;;;;20.44;31.37;94013.22;10505349;28;2998;-51
2023/12/01 17:38:59;;;;;;;;;;;;;;;20.44;31.16;94013.22;10502128;28;2845;-52
2023/12/01 17:43:59;;;;;;;;;;;;;;;20.43;31.23;94010.88;10499126;28;4768;-50
2023/12/01 17:49:00;;;;;;;;;;;;;;;20.44;31.22;94000.06;10492492;28;3141;-53
2023/12/01 17:54:00;;;;;;;;;;;;;;;20.43;30.97;93985.34;10496263;28;3217;-52
2023/12/01 17:59:01;;;;;;;;;;;;;;;20.43;31.30;94002.97;10493458;28;2880;-51
2023/12/01 18:04:01;;;;;;;;;;;;;;;20.45;31.32;94003.44;10523785;27;2828;-51
2023/12/01 18:09:02;;;;;;;;;;;;;;;20.42;31.07;94002.22;10504916;28;2810;-51
2023/12/01 18:14:02;;;;;;;;;;;;;;;20.46;31.30;93999.75;10492517;28;2883;-54
2023/12/01 18:19:04;;;;;;;;;;;;;;;20.45;31.04;93998.94;10499082;28;2867;-49
2023/12/01 18:24:05;;;;;;;;;;;;;;;20.46;30.95;93990.00;10493128;28;2766;-50
2023/12/01 18:29:07;;;;;;;;;;;;;;;20.45;31.04;93998.19;10493520;28;2867;-49
2023/12/01 18:34:08;;;;;;;;;;;;;;;20.46;31.07;93990.00;10492830;28;2820;-48
2023/12/01 18:39:08;;;;;;;;;;;;;;;20.45;30.99;93987.66;10495764;28;2837;-50
2023/12/01 18:44:08;;;;;;;;;;;;;;;20.43;31.24;93998.50;10486201;28;2930;-52
2023/12/01 18:49:09;;;;;;;;;;;;;;;20.48;30.87;93994.94;10498202;28;2928;-54
2023/12/01 18:54:10;;;;;;;;;;;;;;;20.47;30.91;93990.75;10500932;28;2860;-49
2023/12/01 18:59:10;;;;;;;;;;;;;;;20.47;31.08;94001.25;10483323;28;2863;-51
2023/12/01 19:04:11;;;;;;;;;;;;;;;20.46;31.23;93999.75;10499410;28;2942;-49
2023/12/01 19:09:11;;;;;;;;;;;;;;;20.48;30.80;93998.34;10499412;28;2921;-49
2023/12/01 19:14:11;;;;;;;;;;;;;;;20.47;31.08;94009.94;10489512;28;2825;-52
2023/12/01 19:19:11;;;;;;;;;;;;;;;20.46;31.16;94021.56;10493239;28;2858;-51
2023/12/01 19:24:12;;;;;;;;;;;;;;;20.46;31.28;94018.16;10494125;28;2888;-52
2023/12/01 19:29:13;;;;;;;;;;;;;;;20.60;30.64;94001.09;10496911;28;2952;-50
2023/12/01 19:34:13;;;;;;;;;;;;;;;20.64;30.53;94001.22;10496963;28;2902;-51
2023/12/01 19:39:13;;;;;;;;;;;;;;;20.67;30.85;93993.47;10493566;28;2935;-53
2023/12/01 19:44:16;;;;;;;;;;;;;;;20.73;30.52;93994.06;10497228;28;4790;-51
2023/12/01 19:49:16;;;;;;;;;;;;;;;20.81;30.25;93986.13;10495285;28;2820;-53
2023/12/01 19:54:16;;;;;;;;;;;;;;;20.78;30.29;93989.41;10503150;28;2845;-52
2023/12/01 19:59:17;;;;;;;;;;;;;;;20.85;30.57;93986.28;10499233;28;2880;-49
2023/12/01 20:04:17;;;;;;;;;;;;;;;20.84;30.17;93987.34;10507503;28;2808;-52
2023/12/01 20:09:18;;;;;;;;;;;;;;;20.88;30.04;93994.31;10501923;28;2806;-51
2023/12/01 20:14:19;;;;;;;;;;;;;;;20.91;30.08;94006.84;10534556;27;3016;-52
2023/12/01 20:19:20;;;;;;;;;;;;;;;20.92;30.39;93982.03;10505262;28;3184;-51
2023/12/01 20:24:20;;;;;;;;;;;;;;;20.90;30.92;93993.97;10503763;28;2852;-53
2023/12/01 20:29:20;;;;;;;;;;;;;;;20.93;30.23;93988.88;10498251;28;2801;-53
2023/12/01 20:34:20;;;;;;;;;;;;;;;20.97;30.49;93989.78;10501389;28;2781;-54
2023/12/01 20:39:22;;;;;;;;;;;;;;;21.00;30.26;93994.41;10498465;28;2860;-51
2023/12/01 20:44:22;;;;;;;;;;;;;;;20.98;30.49;93991.31;10497263;28;4620;-50
2023/12/01 20:49:22;;;;;;;;;;;;;;;20.98;30.66;93991.31;10492936;28;2754;-50
2023/12/01 20:54:22;;;;;;;;;;;;;;;21.00;30.82;93994.41;10505283;28;2845;-51
2023/12/01 20:59:23;;;;;;;;;;;;;;;21.03;30.50;94003.56;10508656;28;2937;-50
2023/12/01 21:04:23;;;;;;;;;;;;;;;21.03;30.47;93998.28;10504930;28;2857;-50
2023/12/01 21:09:23;;;;;;;;;;;;;;;21.05;30.70;93990.84;10512271;28;2896;-47
2023/12/01 21:14:24;;;;;;;;;;;;;;;20.99;31.22;93977.06;10503349;28;2961;-50
2023/12/01 21:19:24;;;;;;;;;;;;;;;20.92;31.40;93971.50;10503777;28;2889;-47
2023/12/01 21:24:24;;;;;;;;;;;;;;;20.90;31.18;93984.22;10503184;28;2805;-50
2023/12/01 21:29:25;;;;;;;;;;;;;;;20.85;31.67;93978.38;10510347;28;2843;-49
2023/12/01 21:34:25;;;;;;;;;;;;;;;20.78;31.78;93976.22;10503290;28;2892;-51
2023/12/01 21:39:25;;;;;;;;;;;;;;;20.76;31.59;93967.09;10499464;28;3163;-49
2023/12/01 21:44:26;;;;;;;;;;;;;;;20.75;31.54;93971.59;10495606;28;4352;-49
2023/12/01 21:49:26;;;;;;;;;;;;;;;20.73;31.44;93976.41;10499577;28;2908;-53
2023/12/01 21:54:26;;;;;;;;;;;;;;;20.69;31.81;93972.84;10501703;28;2985;-51
2023/12/01 21:59:26;;;;;;;;;;;;;;;20.69;31.88;93983.38;10501700;28;2777;-52
2023/12/01 22:04:27;;;;;;;;;;;;;;;20.65;31.68;93971.94;10502167;28;2892;-49
2023/12/01 22:09:27;;;;;;;;;;;;;;;20.63;31.49;93968.84;10499640;28;2789;-52
2023/12/01 22:14:27;;;;;;;;;;;;;;;20.63;31.59;93968.84;10507185;28;3194;-50
2023/12/01 22:19:28;;;;;;;;;;;;;;;20.59;31.50;93975.84;10503210;28;2826;-50
2023/12/01 22:24:28;;;;;;;;;;;;;;;20.60;31.59;93985.28;10496261;28;3106;-49
2023/12/01 22:29:29;;;;;;;;;;;;;;;20.60;32.22;93973.97;10495457;28;2836;-51
2023/12/01 22:34:29;;;;;;;;;;;;;;;20.63;33.71;93987.28;10496018;28;2844;-49
2023/12/01 22:39:30;;;;;;;;;;;;;;;20.66;34.02;93981.41;10500426;28;2849;-49
2023/12/01 22:44:30;;;;;;;;;;;;;;;20.65;34.20;93979.84;10496460;28;4700;-49
2023/12/01 22:49:30;;;;;;;;;;;;;;;20.65;34.45;93986.97;10494157;28;2865;-50
2023/12/01 22:54:32;;;;;;;;;;;;;;;20.65;34.45;93987.72;10497012;28;2879;-52
2023/12/01 22:59:32;;;;;;;;;;;;;;;20.65;34.26;93987.72;10489022;28;2858;-50
2023/12/01 23:04:32;;;;;;;;;;;;;;;20.64;34.46;93982.78;10491878;28;2963;-53
2023/12/01 23:09:32;;;;;;;;;;;;;;;20.66;34.16;93981.41;10487063;28;2817;-51
2023/12/01 23:14:33;;;;;;;;;;;;;;;20.62;34.65;93993.66;10493246;28;2777;-50
2023/12/01 23:19:34;;;;;;;;;;;;;;;20.60;34.46;93974.75;10490390;28;2919;-48
2023/12/01 23:24:37;;;;;;;;;;;;;;;20.59;34.63;93967.94;10499792;28;2812;-51
2023/12/01 23:29:37;;;;;;;;;;;;;;;20.54;34.95;93976.03;10512159;28;2915;-49
2023/12/01 23:34:37;;;;;;;;;;;;;;;20.55;34.40;93955.72;10517264;28;2912;-50
2023/12/01 23:39:38;;;;;;;;;;;;;;;20.55;34.29;93958.34;10519118;28;2781;-50
2023/12/01 23:44:38;;;;;;;;;;;;;;;20.53;33.91;93953.41;10509907;28;4375;-50
2023/12/01 23:49:38;;;;;;;;;;;;;;;20.51;34.07;93950.31;10540799;27;2905;-48
2023/12/01 23:54:39;;;;;;;;;;;;;;;20.49;33.70;93949.88;10499657;28;2819;-51
2023/12/01 23:59:39;;;;;;;;;;;;;;;20.46;34.28;93961.03;10506249;28;2939;-48
